Fernandina Beach, Florida
Current Conditions -  °F | °C
As of 11:35 AM on Monday 24 Nov 2014 (Local Time) from KFHB Reporting Station
Scattered Clouds Scattered Clouds  
Wind Chill: 84°   Ceiling: Unl
Heat Index: 90°   Visibility: 10mi
Dew Point: 72°   Wind: 17mph
Humidity: 66%   Direction: 220°SW
Pressure: 29.91"   Gusts: 21mph
Location:  30.67°N, 81.46°W
Report Text: KFHB 241635Z AUTO 22015G18KT 10SM SCT022 29/22 A2991 RMK AO1
Loading
Personal Weather Stations






























Interactive Weather Map New forecast layout! Learn more

10-Day Weather Forecast

Advertisements
Track Severe Weather on mobile